Time;durP1;ratioP1;P1;durP2;ratioP2;P2;SDS_P1;SDS_P2;PMS_P1;PMS_P2;Temp;Humidity;BMP_temperature;BMP_pressure;BME280_temperature;BME280_humidity;BME280_pressure;Samples;Min_cycle;Max_cycle;Signal;HPM_P1;HPM_P2
2022/06/25 00:00:50;;;;;;;9.00;2.90;;;19.00;99.90;;;;;;5028922;28;20185;-80
2022/06/25 00:03:16;;;;;;;9.63;2.67;;;18.90;99.90;;;;;;5033692;28;20271;-80
2022/06/25 00:05:41;;;;;;;3.27;3.07;;;18.90;99.90;;;;;;5032801;28;20668;-80
2022/06/25 00:08:07;;;;;;;2.63;2.40;;;18.90;99.90;;;;;;5030236;28;20198;-80
2022/06/25 00:10:32;;;;;;;6.23;2.70;;;18.80;99.90;;;;;;5030709;28;20189;-81
2022/06/25 00:12:58;;;;;;;3.90;2.50;;;18.80;99.90;;;;;;5031902;28;20247;-81
2022/06/25 00:15:23;;;;;;;8.73;2.97;;;18.70;1.00;;;;;;5032470;28;20185;-81
2022/06/25 00:17:49;;;;;;;6.83;3.00;;;18.70;1.00;;;;;;5028558;28;20678;-80
2022/06/25 00:20:14;;;;;;;4.03;2.57;;;18.70;1.00;;;;;;5029911;28;20689;-80
2022/06/25 00:22:40;;;;;;;4.10;2.90;;;18.70;1.00;;;;;;5025245;28;20614;-81
2022/06/25 00:25:06;;;;;;;5.20;2.70;;;18.70;1.00;;;;;;5030381;28;20206;-81
2022/06/25 00:27:31;;;;;;;8.50;2.87;;;18.60;1.00;;;;;;5028799;28;20203;-80
2022/06/25 00:29:57;;;;;;;6.40;2.80;;;18.60;1.00;;;;;;5029135;28;20191;-81
2022/06/25 00:32:22;;;;;;;10.33;2.63;;;18.60;1.00;;;;;;5029134;28;20193;-80
2022/06/25 00:34:48;;;;;;;5.83;2.90;;;18.60;1.00;;;;;;5030805;28;20190;-80
2022/06/25 00:37:15;;;;;;;4.47;2.73;;;18.60;1.00;;;;;;5027121;28;20186;-81
2022/06/25 00:39:43;;;;;;;15.83;3.23;;;18.60;1.00;;;;;;5029397;28;20593;-81
2022/06/25 00:42:10;;;;;;;6.20;3.00;;;18.60;1.00;;;;;;5027673;28;20778;-84
2022/06/25 00:44:36;;;;;;;4.87;2.90;;;18.60;1.00;;;;;;5031454;28;20445;-81
2022/06/25 00:47:03;;;;;;;3.73;2.73;;;18.60;1.00;;;;;;5028784;28;22178;-82
2022/06/25 00:49:28;;;;;;;4.57;3.23;;;18.60;1.00;;;;;;5024768;28;20444;-82
2022/06/25 00:51:59;;;;;;;6.00;3.00;;;18.60;1.00;;;;;;5026366;28;20489;-81
2022/06/25 00:54:33;;;;;;;5.83;2.97;;;18.50;1.00;;;;;;5033201;28;20708;-81
2022/06/25 00:57:00;;;;;;;9.67;2.93;;;18.50;1.00;;;;;;5029616;28;20489;-84
2022/06/25 00:59:28;;;;;;;6.03;3.13;;;18.50;1.00;;;;;;5030186;28;20481;-82
2022/06/25 01:01:54;;;;;;;8.50;2.87;;;18.50;1.00;;;;;;5033220;28;20525;-82
2022/06/25 01:04:20;;;;;;;3.37;3.00;;;18.50;14.90;;;;;;5033859;28;20445;-82
2022/06/25 01:06:45;;;;;;;7.07;2.70;;;18.50;27.90;;;;;;5034873;28;20950;-81
2022/06/25 01:09:11;;;;;;;5.03;2.97;;;18.50;18.90;;;;;;5030035;28;20457;-82
2022/06/25 01:11:37;;;;;;;5.60;2.80;;;18.40;19.10;;;;;;5028318;28;20195;-83
2022/06/25 01:14:10;;;;;;;9.20;2.90;;;18.40;15.80;;;;;;5025166;28;20202;-81
2022/06/25 01:16:36;;;;;;;6.50;2.83;;;18.40;24.20;;;;;;5027017;28;20838;-82
2022/06/25 01:19:10;;;;;;;5.87;2.60;;;18.40;27.90;;;;;;5027961;28;20469;-83
2022/06/25 01:21:36;;;;;;;5.70;2.70;;;18.40;23.40;;;;;;5028777;28;20445;-81
2022/06/25 01:24:02;;;;;;;5.07;2.93;;;18.40;22.30;;;;;;5026780;28;20469;-84
2022/06/25 01:26:28;;;;;;;4.73;3.03;;;18.40;37.80;;;;;;5027446;28;20487;-81
2022/06/25 01:28:53;;;;;;;5.33;2.67;;;18.30;35.90;;;;;;5027830;28;20863;-81
2022/06/25 01:31:19;;;;;;;7.40;3.00;;;18.30;57.20;;;;;;5029538;28;20201;-82
2022/06/25 01:33:44;;;;;;;4.77;3.17;;;18.30;63.00;;;;;;5025188;28;20634;-83
2022/06/25 01:36:10;;;;;;;5.17;2.53;;;18.30;79.80;;;;;;5032194;28;20191;-82
2022/06/25 01:38:35;;;;;;;7.90;2.93;;;18.30;77.10;;;;;;5032376;28;20210;-81
2022/06/25 01:41:01;;;;;;;5.13;2.90;;;18.30;76.90;;;;;;5032111;28;20195;-84
2022/06/25 01:43:26;;;;;;;3.77;2.80;;;18.30;64.70;;;;;;5031710;28;20197;-81
2022/06/25 01:45:52;;;;;;;4.30;3.07;;;18.30;62.90;;;;;;5028543;28;20215;-81
2022/06/25 01:48:18;;;;;;;3.20;2.30;;;18.30;51.20;;;;;;5025631;28;20214;-82
2022/06/25 01:50:43;;;;;;;8.40;3.40;;;18.30;43.30;;;;;;5027146;28;20196;-81
2022/06/25 01:53:09;;;;;;;6.93;2.80;;;18.30;32.90;;;;;;5029713;28;20201;-82
2022/06/25 01:55:35;;;;;;;4.20;2.67;;;18.30;17.10;;;;;;5027140;28;20685;-81
2022/06/25 01:58:01;;;;;;;4.47;2.97;;;18.30;2.20;;;;;;5028306;28;20219;-84
2022/06/25 02:00:28;;;;;;;2.57;2.37;;;18.30;1.00;;;;;;5032688;28;20480;-82
2022/06/25 02:02:54;;;;;;;3.17;2.73;;;18.30;1.00;;;;;;5031159;28;20563;-81
2022/06/25 02:08:08;;;;;;;3.53;2.47;;;18.30;1.00;;;;;;5028777;28;20217;-81
2022/06/25 02:10:33;;;;;;;4.73;2.70;;;18.30;1.00;;;;;;5033643;28;20475;-82
2022/06/25 02:12:59;;;;;;;4.83;4.03;;;18.20;1.00;;;;;;5025696;28;20441;-82
2022/06/25 02:15:24;;;;;;;3.90;2.70;;;18.20;1.00;;;;;;5030678;28;20194;-81
2022/06/25 02:17:50;;;;;;;4.93;2.70;;;18.20;1.00;;;;;;5025320;28;20203;-80
2022/06/25 02:20:16;;;;;;;7.43;2.97;;;18.20;1.00;;;;;;5029130;28;20680;-82
2022/06/25 02:22:42;;;;;;;2.83;2.60;;;18.20;1.00;;;;;;5024747;28;20655;-83
2022/06/25 02:25:07;;;;;;;9.83;2.70;;;18.20;1.00;;;;;;5030263;28;20432;-81
2022/06/25 02:27:34;;;;;;;4.37;2.60;;;18.20;1.00;;;;;;5027525;28;20211;-81
2022/06/25 02:30:00;;;;;;;4.17;2.60;;;18.20;1.00;;;;;;5031405;28;20254;-81
2022/06/25 02:32:25;;;;;;;7.43;2.93;;;18.20;1.00;;;;;;5032261;28;20492;-82
2022/06/25 02:34:51;;;;;;;7.13;3.03;;;18.10;1.00;;;;;;5024889;28;20613;-83
2022/06/25 02:37:16;;;;;;;5.10;3.37;;;18.10;1.00;;;;;;5027102;28;20186;-83
2022/06/25 02:39:42;;;;;;;4.40;3.00;;;18.10;1.00;;;;;;5030940;28;20239;-82
2022/06/25 02:42:07;;;;;;;3.40;3.07;;;18.00;1.00;;;;;;5027995;28;20613;-81
2022/06/25 02:44:33;;;;;;;6.13;2.77;;;18.00;5.40;;;;;;5032478;28;20264;-84
2022/06/25 02:46:59;;;;;;;9.43;2.90;;;18.00;20.70;;;;;;5027616;28;20839;-81
2022/06/25 02:49:24;;;;;;;3.27;3.00;;;18.00;46.70;;;;;;5029057;28;20723;-82
2022/06/25 02:51:50;;;;;;;5.50;3.10;;;18.00;59.50;;;;;;5028083;28;20193;-82
2022/06/25 02:54:16;;;;;;;3.40;2.90;;;18.00;79.90;;;;;;5032673;28;20235;-83
2022/06/25 02:59:25;;;;;;;3.30;2.47;;;18.10;98.00;;;;;;5025255;28;20213;-83
2022/06/25 03:01:55;;;;;;;3.40;3.10;;;18.00;99.90;;;;;;5029800;28;20433;-82
2022/06/25 03:04:21;;;;;;;6.77;3.60;;;18.00;99.90;;;;;;5025269;28;20179;-80
2022/06/25 03:06:47;;;;;;;4.53;3.33;;;18.10;99.90;;;;;;5028337;28;20445;-82
2022/06/25 03:09:12;;;;;;;4.77;3.57;;;18.10;99.90;;;;;;5031372;28;21098;-81
2022/06/25 03:11:38;;;;;;;8.43;3.63;;;18.10;99.90;;;;;;5033435;28;20681;-82
2022/06/25 03:14:03;;;;;;;5.50;2.80;;;18.10;94.50;;;;;;5027684;28;20178;-82
2022/06/25 03:16:29;;;;;;;5.33;3.50;;;18.10;90.50;;;;;;5026408;28;20197;-81
2022/06/25 03:18:55;;;;;;;4.40;3.20;;;18.10;74.60;;;;;;5032557;28;20206;-81
2022/06/25 03:21:20;;;;;;;6.27;3.40;;;18.10;76.60;;;;;;5033767;28;20206;-82
2022/06/25 03:23:46;;;;;;;5.10;3.10;;;18.00;94.20;;;;;;5034121;28;21007;-82
2022/06/25 03:26:13;;;;;;;7.93;3.90;;;18.00;79.30;;;;;;5033875;28;20188;-84
2022/06/25 03:28:38;;;;;;;5.23;3.63;;;18.00;84.50;;;;;;5035215;28;20457;-82
2022/06/25 03:31:04;;;;;;;5.20;4.00;;;18.00;99.90;;;;;;5034028;28;21025;-81
2022/06/25 03:33:29;;;;;;;8.27;4.00;;;18.00;94.00;;;;;;5034511;28;20197;-82
2022/06/25 03:35:55;;;;;;;5.90;3.67;;;17.90;99.90;;;;;;5034551;28;20186;-83
2022/06/25 03:38:21;;;;;;;9.40;3.73;;;17.90;97.90;;;;;;5030505;28;20209;-83
2022/06/25 03:40:46;;;;;;;11.23;4.27;;;17.90;99.90;;;;;;5032330;28;20219;-82
2022/06/25 03:43:12;;;;;;;13.20;4.27;;;17.90;99.90;;;;;;5033851;28;20214;-81
2022/06/25 03:45:40;;;;;;;9.77;3.93;;;17.90;99.90;;;;;;5031141;28;20190;-82
2022/06/25 03:48:06;;;;;;;6.60;3.83;;;17.90;99.90;;;;;;5034056;28;20297;-84
2022/06/25 03:50:33;;;;;;;7.93;4.40;;;18.00;99.90;;;;;;5033856;28;20478;-83
2022/06/25 03:52:59;;;;;;;5.83;4.37;;;17.90;99.90;;;;;;5032644;28;20185;-82
2022/06/25 03:55:24;;;;;;;6.33;3.63;;;18.00;99.90;;;;;;5037462;28;20430;-82
2022/06/25 03:57:50;;;;;;;6.97;3.60;;;18.00;95.00;;;;;;5035674;28;20219;-82
2022/06/25 04:00:16;;;;;;;8.33;4.17;;;18.10;99.90;;;;;;5031637;28;20289;-82
2022/06/25 04:02:41;;;;;;;8.03;3.93;;;18.10;79.90;;;;;;5035261;28;20183;-81
2022/06/25 04:05:07;;;;;;;8.50;3.37;;;18.20;45.00;;;;;;5025962;28;20432;-82
2022/06/25 04:07:33;;;;;;;10.83;4.03;;;18.30;1.00;;;;;;5032327;28;20293;-83
2022/06/25 04:09:58;;;;;;;5.40;4.20;;;18.30;1.00;;;;;;5032152;28;20447;-82
2022/06/25 04:12:24;;;;;;;6.57;3.90;;;18.40;1.00;;;;;;5031993;28;20198;-82
2022/06/25 04:14:49;;;;;;;6.53;3.40;;;18.40;1.00;;;;;;5030347;28;20199;-84
2022/06/25 04:17:15;;;;;;;8.83;4.13;;;18.50;1.00;;;;;;5035855;28;20192;-83
2022/06/25 04:19:40;;;;;;;4.47;3.40;;;18.50;1.00;;;;;;5034444;28;20229;-82
2022/06/25 04:22:10;;;;;;;5.27;3.63;;;18.60;1.00;;;;;;5034653;28;20912;-83
2022/06/25 04:24:40;;;;;;;7.60;4.40;;;18.70;1.00;;;;;;5031016;28;20184;-83
2022/06/25 04:27:07;;;;;;;13.67;3.77;;;18.70;99.90;;;;;;5034783;28;20786;-83
2022/06/25 04:29:33;;;;;;;7.97;4.43;;;18.80;99.90;;;;;;5029396;28;20475;-83
2022/06/25 04:31:58;;;;;;;6.93;4.03;;;18.90;99.90;;;;;;5033469;28;20471;-82
2022/06/25 04:34:24;;;;;;;7.50;4.20;;;18.90;99.90;;;;;;5034275;28;20438;-84
2022/06/25 04:36:50;;;;;;;14.43;4.37;;;19.00;49.10;;;;;;5027893;28;20282;-82
2022/06/25 04:39:16;;;;;;;8.90;3.80;;;19.00;1.00;;;;;;5031682;28;20217;-84
2022/06/25 04:41:42;;;;;;;5.60;3.37;;;19.10;1.00;;;;;;5029592;28;20950;-83
2022/06/25 04:44:08;;;;;;;8.30;3.90;;;19.20;1.00;;;;;;5033167;28;20180;-82
2022/06/25 04:46:33;;;;;;;9.43;4.20;;;19.30;99.90;;;;;;5027699;28;20228;-83
2022/06/25 04:48:59;;;;;;;6.37;4.40;;;19.30;99.90;;;;;;5028494;28;20723;-82
2022/06/25 04:51:25;;;;;;;7.90;4.73;;;19.40;1.00;;;;;;5034506;28;20180;-82
2022/06/25 04:53:57;;;;;;;6.20;4.60;;;19.50;46.80;;;;;;5028423;28;20191;-81
2022/06/25 04:56:28;;;;;;;14.30;4.27;;;19.50;99.90;;;;;;5032810;28;20446;-82
2022/06/25 04:58:55;;;;;;;7.20;4.00;;;19.50;99.90;;;;;;5027631;28;20511;-81
2022/06/25 05:01:21;;;;;;;8.70;4.00;;;19.50;99.90;;;;;;5034392;28;20441;-82
2022/06/25 05:03:47;;;;;;;8.30;4.27;;;19.50;99.90;;;;;;5032971;28;20453;-83
2022/06/25 05:06:13;;;;;;;10.30;4.33;;;19.60;37.00;;;;;;5031836;28;20421;-83
2022/06/25 05:08:39;;;;;;;5.37;4.50;;;19.60;1.00;;;;;;5029734;28;20204;-83
2022/06/25 05:11:05;;;;;;;4.83;4.33;;;19.60;1.00;;;;;;5032853;28;20451;-81
2022/06/25 05:13:30;;;;;;;6.90;4.43;;;19.70;1.00;;;;;;5031959;28;20227;-82
2022/06/25 05:15:56;;;;;;;5.37;3.83;;;19.80;99.90;;;;;;5034196;28;20672;-83
2022/06/25 05:18:22;;;;;;;5.13;3.73;;;19.90;6.80;;;;;;5034710;28;20211;-83
2022/06/25 05:20:48;;;;;;;10.63;4.07;;;19.90;1.00;;;;;;5030718;28;20618;-82
2022/06/25 05:23:14;;;;;;;4.00;3.40;;;20.00;99.90;;;;;;5033106;28;20584;-81
2022/06/25 05:25:41;;;;;;;5.43;3.70;;;20.10;1.00;;;;;;5027156;28;20640;-81
2022/06/25 05:28:07;;;;;;;6.40;3.30;;;20.20;99.90;;;;;;5023793;28;20458;-82
2022/06/25 05:30:33;;;;;;;5.23;3.07;;;20.30;34.30;;;;;;5041806;28;20438;-80
2022/06/25 05:32:59;;;;;;;5.10;3.47;;;20.50;1.00;;;;;;5031521;28;20932;-83
2022/06/25 05:35:24;;;;;;;10.73;3.00;;;20.60;99.90;;;;;;5029628;28;20431;-81
2022/06/25 05:37:50;;;;;;;3.80;3.13;;;20.70;87.80;;;;;;5021245;28;20464;-83
2022/06/25 05:40:16;;;;;;;4.57;2.57;;;20.90;1.00;;;;;;5027370;28;20510;-82
2022/06/25 05:42:42;;;;;;;4.90;3.07;;;21.10;99.90;;;;;;5030281;28;20508;-82
2022/06/25 05:45:08;;;;;;;7.63;2.53;;;21.20;99.90;;;;;;5029846;28;20175;-82
2022/06/25 05:47:34;;;;;;;5.80;3.00;;;21.30;1.00;;;;;;5034786;28;20217;-82
2022/06/25 05:49:59;;;;;;;6.73;2.20;;;21.50;1.00;;;;;;5025673;28;20441;-80
2022/06/25 05:52:25;;;;;;;3.67;2.07;;;21.60;99.90;;;;;;5032096;28;20189;-81
2022/06/25 05:54:50;;;;;;;5.80;2.77;;;21.80;99.90;;;;;;5026856;28;20662;-80
2022/06/25 05:57:16;;;;;;;5.13;2.47;;;21.90;99.90;;;;;;5024877;28;20658;-83
2022/06/25 05:59:42;;;;;;;7.13;2.50;;;22.20;99.90;;;;;;5027769;28;20299;-81
2022/06/25 06:02:07;;;;;;;3.50;2.43;;;22.40;14.80;;;;;;5032604;28;20184;-82
2022/06/25 06:04:33;;;;;;;4.27;2.00;;;22.70;1.00;;;;;;5030564;28;20189;-82
2022/06/25 06:07:00;;;;;;;5.50;2.30;;;23.00;1.00;;;;;;5031225;28;20267;-82
2022/06/25 06:09:27;;;;;;;6.00;2.50;;;23.20;1.00;;;;;;5028646;28;20463;-82
2022/06/25 06:11:54;;;;;;;3.83;2.00;;;23.50;1.00;;;;;;5029580;28;20531;-80
2022/06/25 06:14:20;;;;;;;2.83;1.67;;;23.90;1.00;;;;;;5029306;28;20831;-81
2022/06/25 06:16:46;;;;;;;5.43;1.70;;;24.70;1.00;;;;;;5026448;28;20444;-81
2022/06/25 06:19:11;;;;;;;5.60;1.60;;;26.40;99.90;;;;;;5032312;28;20278;-84
2022/06/25 06:21:37;;;;;;;2.27;1.30;;;30.40;99.90;;;;;;5031230;28;20189;-81
2022/06/25 06:24:02;;;;;;;4.43;1.50;;;34.70;99.90;;;;;;5026682;28;20175;-81
2022/06/25 06:26:28;;;;;;;2.80;1.10;;;37.90;99.90;;;;;;5029143;28;20209;-81
2022/06/25 06:28:53;;;;;;;2.70;1.30;;;40.40;99.90;;;;;;5029083;28;20205;-81
2022/06/25 06:31:19;;;;;;;1.50;1.10;;;42.40;99.90;;;;;;5029060;28;20182;-80
2022/06/25 06:33:44;;;;;;;4.40;1.20;;;42.70;99.90;;;;;;5029539;28;20323;-83
2022/06/25 06:36:10;;;;;;;3.43;1.47;;;44.00;99.90;;;;;;5027076;28;20182;-80
2022/06/25 06:38:36;;;;;;;3.33;1.30;;;45.40;99.90;;;;;;5031765;28;20213;-80
2022/06/25 06:41:01;;;;;;;5.40;1.30;;;46.60;99.90;;;;;;5030128;28;20483;-79
2022/06/25 06:43:27;;;;;;;3.43;1.00;;;47.50;99.90;;;;;;5032950;28;20629;-81
2022/06/25 06:45:52;;;;;;;3.23;1.07;;;48.30;99.90;;;;;;5025739;28;20348;-80
2022/06/25 06:48:18;;;;;;;2.77;1.30;;;48.10;99.90;;;;;;5035494;28;20647;-82
2022/06/25 06:50:43;;;;;;;2.43;1.07;;;48.60;99.90;;;;;;5036522;28;20268;-82
2022/06/25 06:53:09;;;;;;;3.63;1.07;;;49.30;99.90;;;;;;5021193;28;20259;-81
2022/06/25 06:55:34;;;;;;;3.70;1.40;;;50.20;99.90;;;;;;5028553;28;20186;-81
2022/06/25 06:58:00;;;;;;;2.60;0.87;;;50.80;99.90;;;;;;5024899;28;20220;-81
2022/06/25 07:00:26;;;;;;;2.33;1.03;;;51.60;99.90;;;;;;5025689;28;20259;-81
2022/06/25 07:02:51;;;;;;;2.23;1.10;;;52.60;99.90;;;;;;5031189;28;20272;-81
2022/06/25 07:05:17;;;;;;;2.42;1.00;;;53.80;98.90;;;;;;5031336;28;20552;-82
2022/06/25 07:07:42;;;;;;;2.90;1.23;;;55.00;96.90;;;;;;5034570;28;20225;-83
2022/06/25 07:10:08;;;;;;;6.97;1.30;;;56.30;96.10;;;;;;5032574;28;20192;-82
2022/06/25 07:12:34;;;;;;;4.78;0.93;;;57.20;93.90;;;;;;5031920;28;20537;-81
2022/06/25 07:14:59;;;;;;;5.25;1.10;;;58.20;92.80;;;;;;5030295;28;20178;-83
2022/06/25 07:17:25;;;;;;;3.30;0.93;;;59.10;91.90;;;;;;5035444;28;20208;-83
2022/06/25 07:19:52;;;;;;;2.83;1.20;;;59.40;87.70;;;;;;5029127;28;20586;-82
2022/06/25 07:22:17;;;;;;;2.45;1.08;;;59.40;84.50;;;;;;5035769;28;20181;-82
2022/06/25 07:24:43;;;;;;;3.47;1.20;;;60.20;95.50;;;;;;5036159;28;20181;-82
2022/06/25 07:27:08;;;;;;;2.03;1.17;;;60.80;81.60;;;;;;5037095;28;20178;-84
2022/06/25 07:29:34;;;;;;;1.70;0.98;;;60.60;76.50;;;;;;5038168;28;20212;-82
2022/06/25 07:31:59;;;;;;;3.97;1.17;;;60.80;73.30;;;;;;5037040;28;20192;-82
2022/06/25 07:34:25;;;;;;;3.08;1.05;;;61.20;72.80;;;;;;5035498;28;20231;-83
2022/06/25 07:36:50;;;;;;;2.72;1.00;;;61.60;72.30;;;;;;5030431;28;20230;-82
2022/06/25 07:39:16;;;;;;;1.38;0.80;;;61.60;67.10;;;;;;5031754;28;20894;-82
2022/06/25 07:41:42;;;;;;;1.95;1.02;;;61.00;62.10;;;;;;5022383;28;20190;-83
2022/06/25 07:44:07;;;;;;;3.50;1.30;;;60.70;58.40;;;;;;5038379;28;20188;-83
2022/06/25 07:46:33;;;;;;;4.07;1.50;;;59.90;56.00;;;;;;5034693;28;20186;-82
2022/06/25 07:48:58;;;;;;;1.90;0.80;;;60.50;56.30;;;;;;5037397;28;20209;-82
2022/06/25 07:54:08;;;;;;;6.00;1.92;;;58.40;50.00;;;;;;5037521;28;20188;-84
2022/06/25 07:56:33;;;;;;;1.33;0.90;;;59.50;50.40;;;;;;5032442;28;20186;-83
2022/06/25 07:58:59;;;;;;;1.30;0.82;;;58.70;47.20;;;;;;5034466;28;20208;-83
2022/06/25 08:01:25;;;;;;;2.30;1.33;;;58.00;44.70;;;;;;5036196;28;20181;-85
2022/06/25 08:03:50;;;;;;;1.35;0.80;;;57.60;43.50;;;;;;5036854;28;20217;-83
2022/06/25 08:06:16;;;;;;;2.22;0.80;;;56.10;39.20;;;;;;5034765;28;20193;-82
2022/06/25 08:08:42;;;;;;;1.70;1.00;;;55.20;36.90;;;;;;5034639;28;20221;-81
2022/06/25 08:11:08;;;;;;;2.27;0.90;;;;;;;;;;5030134;28;20209;-80
2022/06/25 08:13:35;;;;;;;2.80;0.83;;;52.80;22.70;;;;;;5035037;28;20185;-82
2022/06/25 08:16:00;;;;;;;3.30;1.27;;;51.60;31.50;;;;;;5030106;28;20433;-86
2022/06/25 08:18:26;;;;;;;3.43;1.30;;;52.40;33.30;;;;;;5035758;28;20983;-82
2022/06/25 08:20:51;;;;;;;3.23;1.20;;;52.90;35.60;;;;;;5036983;28;20308;-81
2022/06/25 08:23:17;;;;;;;3.70;1.00;;;53.50;37.00;;;;;;5042641;28;20200;-81
2022/06/25 08:25:43;;;;;;;2.43;1.20;;;53.40;36.30;;;;;;5029700;28;20204;-83
2022/06/25 08:28:08;;;;;;;6.27;1.43;;;52.90;34.50;;;;;;5032358;28;20205;-81
2022/06/25 08:30:35;;;;;;;2.03;1.27;;;52.70;33.60;;;;;;5037027;28;20202;-80
2022/06/25 08:33:01;;;;;;;1.97;1.20;;;53.00;46.20;;;;;;5033413;28;20189;-82
2022/06/25 08:35:27;;;;;;;4.83;1.07;;;53.20;34.40;;;;;;5033774;28;20204;-82
2022/06/25 08:37:53;;;;;;;1.93;1.00;;;53.40;34.60;;;;;;5031490;28;20201;-82
2022/06/25 08:40:20;;;;;;;2.50;1.00;;;53.30;34.50;;;;;;5034325;28;20194;-81
2022/06/25 08:42:49;;;;;;;3.43;1.60;;;53.00;33.50;;;;;;5034678;28;20455;-82
2022/06/25 08:45:17;;;;;;;2.20;1.10;;;53.00;33.10;;;;;;5032221;28;20811;-81
2022/06/25 08:47:45;;;;;;;2.50;1.37;;;53.20;33.80;;;;;;5035290;28;20304;-82
2022/06/25 08:50:12;;;;;;;3.63;1.20;;;53.30;33.40;;;;;;5032494;28;20277;-81
2022/06/25 08:52:38;;;;;;;3.70;1.07;;;53.60;34.50;;;;;;5032631;28;20185;-81
2022/06/25 08:55:05;;;;;;;2.77;1.40;;;53.40;33.50;;;;;;5034355;28;20181;-84
2022/06/25 08:57:30;;;;;;;3.00;1.40;;;53.50;34.00;;;;;;5031662;28;20229;-82
2022/06/25 08:59:57;;;;;;;5.30;1.60;;;53.50;33.30;;;;;;5033700;28;20221;-81
2022/06/25 09:02:22;;;;;;;3.03;1.50;;;53.40;33.00;;;;;;5035946;28;20677;-82
2022/06/25 09:04:48;;;;;;;2.23;1.00;;;53.30;31.80;;;;;;5031207;28;20192;-81
2022/06/25 09:07:18;;;;;;;3.10;1.17;;;53.50;32.70;;;;;;5035815;28;20189;-81
2022/06/25 09:09:49;;;;;;;3.50;1.40;;;53.60;31.70;;;;;;5028411;28;21892;-84
2022/06/25 09:12:16;;;;;;;2.10;1.00;;;53.80;31.80;;;;;;5033390;28;20261;-81
2022/06/25 09:14:42;;;;;;;4.13;1.17;;;51.50;26.30;;;;;;5031693;28;20933;-79
2022/06/25 09:17:12;;;;;;;4.97;1.50;;;47.90;21.80;;;;;;5027256;28;20433;-81
2022/06/25 09:19:39;;;;;;;5.57;1.50;;;48.80;25.40;;;;;;5032550;28;20185;-81
2022/06/25 09:22:10;;;;;;;3.00;1.57;;;49.80;27.40;;;;;;5033138;28;20447;-81
2022/06/25 09:24:55;;;;;;;4.77;1.30;;;50.70;29.00;;;;;;5034251;28;20436;-81
2022/06/25 09:27:47;;;;;;;2.80;1.17;;;51.30;30.40;;;;;;5025311;28;20429;-83
2022/06/25 09:30:16;;;;;;;4.13;1.30;;;51.70;31.60;;;;;;5028657;28;20475;-82
2022/06/25 09:32:46;;;;;;;4.50;1.50;;;52.30;33.30;;;;;;5032995;28;20465;-82
2022/06/25 09:35:13;;;;;;;2.63;1.03;;;52.60;33.10;;;;;;5033928;28;20823;-81
2022/06/25 09:37:40;;;;;;;4.30;1.10;;;52.60;33.00;;;;;;5033941;28;20452;-80
2022/06/25 09:40:07;;;;;;;3.10;1.20;;;52.40;32.40;;;;;;5032790;28;20543;-80
2022/06/25 09:42:34;;;;;;;2.70;1.10;;;51.50;29.30;;;;;;5031916;28;20445;-80
2022/06/25 09:45:06;;;;;;;2.47;1.27;;;50.80;27.40;;;;;;5030495;28;20436;-83
2022/06/25 09:47:35;;;;;;;3.43;1.10;;;50.20;27.10;;;;;;5032431;28;21160;-81
2022/06/25 09:50:08;;;;;;;2.60;1.07;;;49.90;26.10;;;;;;5046141;28;20514;-81
2022/06/25 09:52:36;;;;;;;1.73;1.10;;;48.90;24.80;;;;;;5028216;28;20437;-81
2022/06/25 09:55:03;;;;;;;2.20;0.90;;;49.50;26.10;;;;;;5028458;28;20463;-82
2022/06/25 09:57:30;;;;;;;3.20;1.20;;;49.50;26.20;;;;;;5032463;28;20467;-82
2022/06/25 09:59:59;;;;;;;3.30;1.20;;;50.20;27.80;;;;;;5033802;28;21181;-82
2022/06/25 10:02:29;;;;;;;3.53;1.00;;;50.80;28.30;;;;;;5031342;28;20420;-81
2022/06/25 10:05:00;;;;;;;2.17;1.17;;;51.10;29.20;;;;;;5024276;28;20437;-84
2022/06/25 10:10:18;;;;;;;2.60;1.40;;;50.80;28.80;;;;;;5036455;28;20508;-82
2022/06/25 10:12:46;;;;;;;3.97;1.20;;;48.20;22.90;;;;;;5022357;28;20436;-81
2022/06/25 10:15:17;;;;;;;3.60;1.20;;;45.90;28.60;;;;;;5027769;28;20827;-83
2022/06/25 10:17:45;;;;;;;2.07;1.10;;;44.30;18.00;;;;;;5019340;28;20449;-81
2022/06/25 10:20:11;;;;;;;3.47;1.10;;;42.80;17.00;;;;;;5032367;28;20429;-81
2022/06/25 10:22:37;;;;;;;5.00;1.40;;;41.80;17.10;;;;;;5036748;28;20424;-81
2022/06/25 10:25:03;;;;;;;5.97;1.37;;;40.50;16.50;;;;;;5035213;28;20838;-81
2022/06/25 10:27:38;;;;;;;9.43;2.83;;;39.50;17.20;;;;;;5031339;28;20232;-81
2022/06/25 10:30:03;;;;;;;5.43;1.60;;;38.20;17.80;;;;;;5026842;28;20492;-81
2022/06/25 10:32:29;;;;;;;2.70;1.10;;;37.50;17.30;;;;;;5035098;28;20437;-81
2022/06/25 10:35:02;;;;;;;4.90;2.50;;;37.50;19.60;;;;;;5030812;28;20179;-82
2022/06/25 10:37:27;;;;;;;3.50;2.50;;;37.10;20.60;;;;;;5022123;28;20194;-81
2022/06/25 10:39:56;;;;;;;6.50;1.43;;;36.80;21.90;;;;;;5028159;28;20496;-81
2022/06/25 10:45:13;;;;;;;3.10;1.57;;;37.80;27.10;;;;;;5029655;28;20431;-80
2022/06/25 10:47:39;;;;;;;1.90;1.20;;;37.40;27.80;;;;;;5032114;28;20548;-81
2022/06/25 10:50:20;;;;;;;2.20;1.20;;;37.00;27.00;;;;;;5032555;28;20197;-81
2022/06/25 10:53:19;;;;;;;4.00;1.50;;;36.50;27.50;;;;;;5023295;28;20432;-83
2022/06/25 10:55:48;;;;;;;1.97;1.53;;;36.20;28.50;;;;;;5015835;28;20429;-81
2022/06/25 10:58:15;;;;;;;2.13;1.30;;;36.10;29.10;;;;;;5026663;28;20453;-81
2022/06/25 11:00:54;;;;;;;3.40;1.27;;;35.90;30.00;;;;;;5025351;28;20438;-80
2022/06/25 11:03:32;;;;;;;3.87;1.73;;;35.70;31.20;;;;;;5025121;28;20524;-80
2022/06/25 11:06:00;;;;;;;5.03;1.77;;;35.70;33.50;;;;;;5026937;28;20505;-81
2022/06/25 11:08:33;;;;;;;3.50;1.30;;;35.80;34.10;;;;;;5028078;28;20457;-81
2022/06/25 11:10:59;;;;;;;3.57;1.20;;;36.00;36.00;;;;;;5023150;28;20563;-80
2022/06/25 11:13:25;;;;;;;4.23;1.30;;;36.70;37.80;;;;;;5029571;28;20509;-80
2022/06/25 11:15:51;;;;;;;4.27;1.30;;;37.10;40.10;;;;;;5021981;28;20461;-81
2022/06/25 11:18:16;;;;;;;4.63;1.30;;;37.10;40.50;;;;;;5035269;28;20964;-81
2022/06/25 11:20:43;;;;;;;3.03;1.40;;;37.00;41.00;;;;;;5025662;28;20619;-84
2022/06/25 11:23:13;;;;;;;2.73;1.30;;;36.90;40.30;;;;;;5025384;28;20182;-82
2022/06/25 11:29:08;;;;;;;3.33;1.73;;;36.50;40.60;;;;;;5025445;28;20520;-82
2022/06/25 11:31:26;;;;;;;5.77;1.20;;;36.10;39.80;;;;;;5021255;28;20488;-84
2022/06/25 11:33:53;;;;;;;3.67;1.37;;;35.70;39.50;;;;;;5026016;28;21080;-81
2022/06/25 11:36:20;;;;;;;6.53;1.67;;;35.40;39.30;;;;;;5023407;28;20183;-82
2022/06/25 11:38:54;;;;;;;2.50;1.27;;;35.10;39.60;;;;;;5032332;28;20459;-81
2022/06/25 11:41:20;;;;;;;4.33;1.77;;;34.80;39.60;;;;;;5027398;28;20436;-82
2022/06/25 11:43:45;;;;;;;5.00;1.33;;;34.40;38.80;;;;;;5027518;28;20445;-81
2022/06/25 11:46:14;;;;;;;2.77;1.10;;;34.10;39.20;;;;;;5028511;28;20437;-80
2022/06/25 11:48:39;;;;;;;3.00;1.53;;;33.90;40.40;;;;;;5035240;28;20214;-79
2022/06/25 11:51:05;;;;;;;2.93;1.33;;;33.70;40.40;;;;;;5025941;28;20474;-81
2022/06/25 11:53:34;;;;;;;3.30;1.40;;;33.50;41.10;;;;;;5027969;28;20190;-80
2022/06/25 11:56:02;;;;;;;3.43;1.60;;;33.40;41.10;;;;;;5029034;28;20186;-81
2022/06/25 11:58:32;;;;;;;2.73;1.40;;;33.20;41.60;;;;;;5034930;28;20908;-83
2022/06/25 12:00:59;;;;;;;5.93;1.70;;;33.20;42.90;;;;;;5026628;28;20462;-80
2022/06/25 12:03:26;;;;;;;5.90;1.20;;;33.30;44.20;;;;;;5026375;28;20991;-82
2022/06/25 12:05:53;;;;;;;2.10;1.20;;;33.30;45.50;;;;;;5027170;28;20456;-80
2022/06/25 12:08:20;;;;;;;3.37;1.33;;;33.20;46.30;;;;;;5026612;28;20539;-80
2022/06/25 12:10:47;;;;;;;2.37;1.20;;;33.20;47.60;;;;;;5027443;28;20948;-79
2022/06/25 12:13:17;;;;;;;5.47;1.40;;;33.20;48.40;;;;;;5030399;28;20437;-81
2022/06/25 12:15:42;;;;;;;2.27;1.37;;;33.10;49.00;;;;;;5026866;28;20449;-83
2022/06/25 12:18:08;;;;;;;4.53;1.20;;;33.10;49.70;;;;;;5026890;28;20452;-80
2022/06/25 12:20:34;;;;;;;3.80;1.30;;;33.10;50.20;;;;;;5029307;28;20214;-80
2022/06/25 12:23:00;;;;;;;4.50;1.40;;;32.70;50.10;;;;;;5030679;28;20554;-79
2022/06/25 12:25:31;;;;;;;4.23;1.40;;;32.50;49.40;;;;;;5027128;28;20183;-81
2022/06/25 12:27:57;;;;;;;3.70;1.40;;;32.30;49.20;;;;;;5026368;28;20999;-79
2022/06/25 12:30:25;;;;;;;3.33;2.17;;;32.10;49.60;;;;;;5024162;28;20436;-79
2022/06/25 12:32:52;;;;;;;6.90;1.97;;;31.90;50.40;;;;;;5030668;28;20963;-81
2022/06/25 12:35:20;;;;;;;6.07;1.30;;;31.70;49.70;;;;;;5031796;28;20444;-81
2022/06/25 12:38:09;;;;;;;2.07;1.30;;;31.70;50.50;;;;;;5030050;28;20457;-81
2022/06/25 12:40:53;;;;;;;9.60;1.37;;;31.70;52.30;;;;;;5031658;28;20837;-82
2022/06/25 12:43:20;;;;;;;2.67;1.27;;;31.90;53.50;;;;;;5026877;28;20457;-80
2022/06/25 12:45:47;;;;;;;4.50;1.80;;;32.10;54.00;;;;;;5032017;28;20441;-82
2022/06/25 12:48:30;;;;;;;6.17;1.40;;;32.00;54.90;;;;;;5029996;28;20464;-81
2022/06/25 12:51:10;;;;;;;3.87;1.30;;;31.90;55.90;;;;;;5028708;28;20476;-81
2022/06/25 12:53:36;;;;;;;6.53;1.23;;;32.00;56.50;;;;;;5032146;28;20416;-82
2022/06/25 12:56:02;;;;;;;2.40;1.20;;;32.10;56.60;;;;;;5025862;28;20496;-81
2022/06/25 12:58:35;;;;;;;2.80;1.50;;;32.20;57.50;;;;;;5026561;28;21839;-81
2022/06/25 13:01:16;;;;;;;5.50;1.33;;;31.90;58.20;;;;;;5031369;28;20477;-82
2022/06/25 13:03:41;;;;;;;2.50;1.10;;;31.90;57.70;;;;;;5028492;28;20436;-82